createdAt,value
2019-05-18T00:00:50.799Z,94143.33
2019-05-18T00:15:49.724Z,94137.63
2019-05-18T00:30:51.673Z,94137.63
2019-05-18T00:45:51.020Z,94129.58
2019-05-18T01:00:56.967Z,94130.88
2019-05-18T01:15:51.506Z,94115.20
2019-05-18T01:30:49.893Z,94120.24
2019-05-18T01:45:50.866Z,94096.39
2019-05-18T02:00:52.799Z,94088.13
2019-05-18T02:15:53.065Z,94079.20
2019-05-18T02:30:51.593Z,94080.23
2019-05-18T02:45:50.105Z,94082.83
2019-05-18T03:00:53.928Z,94073.71
2019-05-18T03:15:49.389Z,94086.00
2019-05-18T03:30:49.344Z,94101.14
2019-05-18T03:45:52.213Z,94107.84
2019-05-18T04:00:51.152Z,94115.98
2019-05-18T04:15:49.621Z,94111.46
2019-05-18T04:30:51.547Z,94116.92
2019-05-18T04:45:53.418Z,94125.10
2019-05-18T05:00:51.381Z,94128.75
2019-05-18T05:15:49.768Z,94133.95
2019-05-18T05:30:49.671Z,94139.48
2019-05-18T05:45:51.711Z,94143.33
2019-05-18T06:00:51.620Z,94143.44
2019-05-18T06:15:49.926Z,94149.73
2019-05-18T06:30:49.859Z,94148.08
2019-05-18T06:45:50.715Z,94145.72
2019-05-18T07:00:54.979Z,94140.79
2019-05-18T07:15:49.215Z,94134.90
2019-05-18T07:30:49.110Z,94119.42
2019-05-18T07:45:52.099Z,94121.78
2019-05-18T08:00:51.536Z,94119.86
2019-05-18T08:15:49.436Z,94119.67
2019-05-18T08:30:55.416Z,94105.95
2019-05-18T08:45:54.806Z,94095.79
2019-05-18T09:00:55.217Z,94095.67
2019-05-18T09:15:49.654Z,94096.56
2019-05-18T09:30:55.568Z,94072.33
2019-05-18T09:45:51.093Z,94055.98
2019-05-18T10:00:49.432Z,94048.09
2019-05-18T10:15:52.165Z,94026.89
2019-05-18T10:30:49.857Z,94024.69
2019-05-18T10:45:49.719Z,94005.02
2019-05-18T11:00:51.243Z,93997.56
2019-05-18T11:15:57.126Z,93984.52
2019-05-18T11:30:49.131Z,93965.66
2019-05-18T11:45:51.515Z,93942.01
2019-05-18T12:00:49.950Z,93925.38
2019-05-18T12:15:49.466Z,93918.29
2019-05-18T12:30:49.297Z,93902.08
2019-05-18T12:45:49.245Z,93873.05
2019-05-18T13:00:50.691Z,93858.94
2019-05-18T13:15:49.729Z,93854.22
2019-05-18T13:30:50.213Z,93832.83
2019-05-18T13:45:52.537Z,93824.34
2019-05-18T14:00:49.437Z,93817.19
2019-05-18T14:15:51.787Z,93810.75
2019-05-18T14:30:49.744Z,93821.95
2019-05-18T14:45:57.773Z,93815.19
2019-05-18T15:00:49.752Z,93806.27
2019-05-18T15:15:49.200Z,93801.65
2019-05-18T15:30:49.972Z,93791.09
2019-05-18T15:45:50.018Z,93806.58
2019-05-18T16:00:49.451Z,93801.73
2019-05-18T16:15:49.253Z,93808.75
2019-05-18T16:30:49.214Z,93806.72
2019-05-18T16:45:49.222Z,93815.01
2019-05-18T17:00:49.688Z,93811.37
2019-05-18T17:15:49.506Z,93816.12
2019-05-18T17:30:49.448Z,93825.69
2019-05-18T17:45:49.387Z,93842.91
2019-05-18T18:00:49.449Z,93841.56
2019-05-18T18:15:49.833Z,93856.40
2019-05-18T18:30:49.767Z,93857.59
2019-05-18T18:45:51.134Z,93869.17
2019-05-18T19:00:49.605Z,93890.21
2019-05-18T19:15:50.250Z,93891.69
2019-05-18T19:30:50.339Z,93888.87
2019-05-18T19:45:52.687Z,93894.75
2019-05-18T20:00:55.528Z,93892.51
2019-05-18T20:30:56.670Z,93919.03
2019-05-18T20:45:57.215Z,93939.36
2019-05-18T21:15:50.913Z,93941.28
2019-05-18T21:30:49.792Z,93943.09
2019-05-18T21:45:51.801Z,93941.63
2019-05-18T22:00:50.353Z,93944.26
2019-05-18T22:15:55.323Z,93936.25
2019-05-18T22:30:49.228Z,93941.22
2019-05-18T22:45:56.728Z,93941.36
2019-05-18T23:00:58.184Z,93932.44
2019-05-18T23:15:49.584Z,93940.42
2019-05-18T23:30:57.488Z,93939.57
2019-05-18T23:45:52.888Z,93949.45
